Thursday, September 20, 2018, 4:23 PM EDT
Back to Local

KSWF, Newburgh / Stewart

Location: New Windsor, NY, United States Lat: 41.5
Local Time: 4:23 PM EDT (20:23 GMT) Lon: -74.1
Time Zone: US/Eastern Elev: 492 ft

Show me the last for .
Show Decoded

2018-09-20 15:45 METAR KSWF 201945Z VRB05KT 10SM OVC032 20/15 A3022 =
2018-09-20 14:45 METAR KSWF 201845Z VRB05KT 10SM OVC032 20/15 A3023 =
2018-09-20 13:45 METAR KSWF 201745Z VRB05KT 10SM OVC030 20/16 A3025 =
2018-09-20 12:45 METAR KSWF 201645Z VRB05KT 10SM FEW015 OVC030 19/15 A3026 =
2018-09-20 11:45 METAR KSWF 201545Z VRB05KT 10SM FEW009 OVC015 18/15 A3027 =
2018-09-20 10:45 METAR KSWF 201445Z VRB04KT 10SM FEW006 OVC015 17/15 A3027 =
2018-09-20 09:45 METAR KSWF 201345Z 09004KT 10SM SCT006 OVC015 17/15 A3025 =
2018-09-20 08:45 METAR KSWF 201245Z 11005KT 5SM BCFG BR OVC009 16/15 A3022 =
2018-09-20 07:45 METAR KSWF 201145Z 11005KT 7SM OVC009 15/15 A3021 =
2018-09-20 06:49 METAR KSWF 201049Z 00000KT 5SM -DZ BR OVC009 15/14 A3017 =
2018-09-20 06:45 METAR KSWF 201045Z 00000KT 10SM -DZ OVC012 15/14 A3017 =
2018-09-20 05:45 METAR KSWF 200945Z VRB05KT 10SM OVC012 16/14 A3015 =
2018-09-20 03:45 METAR KSWF 200745Z 06005KT 10SM BKN015 OVC035 16/14 A3012 =
2018-09-20 01:45 METAR KSWF 200545Z 04007KT 10SM OVC035 18/16 A3010 =
2018-09-19 23:45 METAR KSWF 200345Z 05006KT 10SM OVC035 19/17 A3010 =
2018-09-19 22:45 METAR KSWF 200245Z 05006KT 10SM OVC035 20/17 A3008 =
2018-09-19 21:45 METAR KSWF 200145Z 06005KT 10SM SCT040 BKN050 21/18 A3007 =
2018-09-19 19:45 METAR KSWF 192345Z 06005KT 10SM SCT040 BKN050 21/18 A3003 =
2018-09-19 18:45 METAR KSWF 192245Z 06005KT 10SM BKN040 22/18 A3000 =
2018-09-19 17:45 METAR KSWF 192145Z 06005KT 10SM FEW025 SCT040 24/19 A2998 =
2018-09-19 16:45 METAR KSWF 192045Z VRB05KT 10SM FEW025 SCT040 25/19 A2997 =

Support USWX by starting your Amazon purchase here.